Time;durP1;ratioP1;P1;durP2;ratioP2;P2;SDS_P1;SDS_P2;PMS_P1;PMS_P2;Temp;Humidity;BMP_temperature;BMP_pressure;BME280_temperature;BME280_humidity;BME280_pressure;Samples;Min_cycle;Max_cycle;Signal;HPM_P1;HPM_P2
2021/12/15 00:01:44;;;;;;;5.05;4.45;;;24.00;39.10;;;;;;5023997;28;20386;-46
2021/12/15 00:04:11;;;;;;;5.50;4.70;;;24.00;39.10;;;;;;5023449;28;20053;-47
2021/12/15 00:06:38;;;;;;;5.55;4.70;;;24.00;39.10;;;;;;5019553;28;20041;-47
2021/12/15 00:09:08;;;;;;;5.88;4.78;;;24.00;39.10;;;;;;5004508;28;20026;-47
2021/12/15 00:11:36;;;;;;;5.97;4.63;;;24.00;39.10;;;;;;5005080;28;20026;-48
2021/12/15 00:14:12;;;;;;;5.80;4.97;;;23.90;39.00;;;;;;5020004;28;20036;-48
2021/12/15 00:16:39;;;;;;;5.95;4.90;;;23.90;39.10;;;;;;5024239;28;20037;-48
2021/12/15 00:19:05;;;;;;;6.00;5.22;;;23.90;39.00;;;;;;5024799;28;20041;-46
2021/12/15 00:21:31;;;;;;;6.30;5.30;;;23.90;39.00;;;;;;5024389;28;20026;-46
2021/12/15 00:23:57;;;;;;;6.10;4.95;;;23.90;39.00;;;;;;5023955;28;20033;-46
2021/12/15 00:26:23;;;;;;;5.50;4.90;;;23.90;39.00;;;;;;5022977;28;20065;-46
2021/12/15 00:28:50;;;;;;;5.97;5.30;;;23.90;39.10;;;;;;5024725;28;20091;-47
2021/12/15 00:31:16;;;;;;;5.72;5.15;;;23.80;39.00;;;;;;5024052;28;20023;-47
2021/12/15 00:33:44;;;;;;;5.38;4.53;;;23.80;39.00;;;;;;5023665;28;20018;-46
2021/12/15 00:36:11;;;;;;;6.07;4.88;;;23.80;39.00;;;;;;5023998;28;20026;-46
2021/12/15 00:38:37;;;;;;;5.78;5.05;;;23.80;39.00;;;;;;5023597;28;20401;-47
2021/12/15 00:41:04;;;;;;;5.78;4.75;;;23.80;39.00;;;;;;5024089;28;20172;-46
2021/12/15 00:43:30;;;;;;;5.72;4.93;;;23.80;39.00;;;;;;5023698;28;20026;-47
2021/12/15 00:45:56;;;;;;;5.75;4.78;;;23.80;39.00;;;;;;5023628;28;20029;-46
2021/12/15 00:48:23;;;;;;;5.70;4.60;;;23.80;39.00;;;;;;5022833;28;20541;-46
2021/12/15 00:50:49;;;;;;;5.28;4.57;;;23.80;39.00;;;;;;5036689;28;20025;-46
2021/12/15 00:53:15;;;;;;;5.50;4.20;;;23.80;39.00;;;;;;5024884;28;20034;-46
2021/12/15 00:55:43;;;;;;;5.55;4.85;;;23.70;39.10;;;;;;5022556;28;20018;-46
2021/12/15 00:58:10;;;;;;;5.25;4.45;;;23.70;39.00;;;;;;5023799;28;20044;-46
2021/12/15 01:00:47;;;;;;;5.68;4.97;;;23.70;38.90;;;;;;5023719;28;20132;-46
2021/12/15 01:03:14;;;;;;;6.18;4.75;;;23.70;38.90;;;;;;5024009;28;20100;-47
2021/12/15 01:05:44;;;;;;;5.38;4.53;;;23.70;39.00;;;;;;5023710;28;20125;-46
2021/12/15 01:08:14;;;;;;;5.45;4.80;;;23.70;38.80;;;;;;5023817;28;20033;-46
2021/12/15 01:21:43;;;;;;;5.88;4.72;;;23.60;38.80;;;;;;5006779;28;20042;-46
2021/12/15 01:24:10;;;;;;;5.43;4.38;;;23.60;38.80;;;;;;5023115;28;20492;-46
2021/12/15 01:26:36;;;;;;;5.03;4.32;;;23.60;38.80;;;;;;5023764;28;20453;-46
2021/12/15 01:29:03;;;;;;;5.53;4.43;;;23.60;38.80;;;;;;5023484;28;20119;-46
2021/12/15 01:31:29;;;;;;;5.20;4.40;;;23.50;38.80;;;;;;5024393;28;20025;-46
2021/12/15 01:33:55;;;;;;;5.50;4.45;;;23.50;38.80;;;;;;5023017;28;20631;-47
2021/12/15 01:36:22;;;;;;;5.35;4.68;;;23.50;38.80;;;;;;5020917;28;20091;-47
2021/12/15 01:38:50;;;;;;;5.00;4.13;;;23.50;38.80;;;;;;5024540;28;20029;-47
2021/12/15 01:41:22;;;;;;;5.82;4.57;;;23.50;38.80;;;;;;5031336;28;20079;-46
2021/12/15 01:49:22;;;;;;;5.50;4.72;;;23.50;38.80;;;;;;5024007;28;20612;-46
2021/12/15 01:51:48;;;;;;;5.38;4.43;;;23.40;38.70;;;;;;5008397;28;20080;-46
2021/12/15 01:54:16;;;;;;;6.03;4.38;;;23.50;38.80;;;;;;5026970;28;20040;-46
2021/12/15 01:56:42;;;;;;;5.15;4.45;;;23.40;38.70;;;;;;5026017;28;20029;-46
2021/12/15 01:59:09;;;;;;;5.60;4.30;;;23.40;38.80;;;;;;5027813;28;20675;-46
2021/12/15 02:01:36;;;;;;;5.13;4.13;;;23.40;38.70;;;;;;5027013;28;20098;-46
2021/12/15 02:04:02;;;;;;;5.07;4.28;;;23.40;38.70;;;;;;5027002;28;20117;-46
2021/12/15 02:06:28;;;;;;;5.43;4.50;;;23.40;38.70;;;;;;5024294;28;20060;-47
2021/12/15 02:08:53;;;;;;;5.18;4.50;;;23.40;38.80;;;;;;5007166;28;20053;-47
2021/12/15 02:11:20;;;;;;;5.10;4.18;;;23.40;38.70;;;;;;5007433;28;20518;-46
2021/12/15 02:13:45;;;;;;;5.07;4.35;;;23.40;38.80;;;;;;5006424;28;20025;-46
2021/12/15 02:16:11;;;;;;;5.18;4.25;;;23.40;38.80;;;;;;5006506;28;20505;-46
2021/12/15 02:18:45;;;;;;;5.43;4.38;;;23.40;38.80;;;;;;5005914;28;20018;-46
2021/12/15 02:21:12;;;;;;;5.55;4.80;;;23.30;38.80;;;;;;5006745;28;20113;-46
2021/12/15 02:23:45;;;;;;;5.70;4.25;;;23.30;38.80;;;;;;5040116;28;20405;-46
2021/12/15 02:26:15;;;;;;;5.55;4.55;;;23.30;38.80;;;;;;5023175;28;20033;-46
2021/12/15 02:28:46;;;;;;;5.03;4.15;;;23.30;38.80;;;;;;5026208;28;20531;-46
2021/12/15 02:31:19;;;;;;;5.55;4.60;;;23.30;38.80;;;;;;5025751;28;20021;-46
2021/12/15 02:33:58;;;;;;;4.50;3.90;;;23.30;38.80;;;;;;5025865;28;20025;-46
2021/12/15 02:39:10;;;;;;;5.00;3.97;;;23.30;38.80;;;;;;5006896;28;20201;-46
2021/12/15 02:41:38;;;;;;;4.80;3.78;;;23.30;38.80;;;;;;5006429;28;20101;-46
2021/12/15 02:44:07;;;;;;;5.00;4.13;;;23.30;38.80;;;;;;5006822;28;20030;-46
2021/12/15 02:46:35;;;;;;;4.95;3.63;;;23.30;38.80;;;;;;5006732;28;20096;-46
2021/12/15 02:49:03;;;;;;;5.25;3.97;;;23.30;38.80;;;;;;5006351;28;20088;-46
2021/12/15 02:51:29;;;;;;;5.30;4.10;;;23.30;38.80;;;;;;5039668;28;20713;-47
2021/12/15 02:54:01;;;;;;;4.85;4.25;;;23.30;38.80;;;;;;5025899;28;20091;-47
2021/12/15 02:56:27;;;;;;;4.40;3.55;;;23.20;38.70;;;;;;5025860;28;20108;-47
2021/12/15 02:58:59;;;;;;;4.88;3.85;;;23.20;38.80;;;;;;5025792;28;20079;-46
2021/12/15 03:04:29;;;;;;;4.78;3.67;;;23.30;38.80;;;;;;5023146;28;20029;-46
2021/12/15 03:07:09;;;;;;;4.90;3.93;;;23.20;38.70;;;;;;5025525;28;20544;-46
2021/12/15 03:17:37;;;;;;;5.28;3.78;;;23.20;38.70;;;;;;5021270;28;20456;-46
2021/12/15 03:20:05;;;;;;;4.95;3.78;;;23.10;38.70;;;;;;5026301;28;20628;-46
2021/12/15 03:22:31;;;;;;;5.05;3.65;;;23.20;38.70;;;;;;5024259;28;20029;-46
2021/12/15 03:24:57;;;;;;;4.78;3.85;;;23.20;38.80;;;;;;5025985;28;20033;-46
2021/12/15 03:33:14;;;;;;;5.32;3.85;;;23.20;38.70;;;;;;5024781;28;20033;-47
2021/12/15 03:38:22;;;;;;;4.70;3.55;;;23.10;38.70;;;;;;5020597;28;20029;-46
2021/12/15 03:40:48;;;;;;;4.82;3.70;;;23.10;38.70;;;;;;5025197;28;20038;-46
2021/12/15 03:43:15;;;;;;;4.78;3.70;;;23.10;38.70;;;;;;5025337;28;20040;-46
2021/12/15 03:45:45;;;;;;;4.50;3.30;;;23.10;38.70;;;;;;5025377;28;20030;-48
2021/12/15 03:48:14;;;;;;;4.45;3.45;;;23.10;38.70;;;;;;5025181;28;20075;-46
2021/12/15 03:50:42;;;;;;;4.32;3.47;;;23.10;38.70;;;;;;5036319;28;20032;-46
2021/12/15 03:53:09;;;;;;;4.47;3.47;;;23.10;38.70;;;;;;5030981;28;20064;-46
2021/12/15 03:55:37;;;;;;;3.90;2.92;;;23.10;38.70;;;;;;5024716;28;20068;-46
2021/12/15 03:58:08;;;;;;;4.72;3.90;;;23.10;38.80;;;;;;5025279;28;20057;-46
2021/12/15 04:00:34;;;;;;;4.00;2.88;;;23.00;38.60;;;;;;5024810;28;20049;-46
2021/12/15 04:03:00;;;;;;;4.65;3.65;;;23.00;38.60;;;;;;5024494;28;20032;-46
2021/12/15 04:05:26;;;;;;;4.32;3.28;;;23.10;38.70;;;;;;5025496;28;20029;-47
2021/12/15 04:07:53;;;;;;;4.30;3.35;;;23.10;38.70;;;;;;5023872;28;20029;-46
2021/12/15 04:10:22;;;;;;;4.40;3.33;;;23.10;38.70;;;;;;5024263;28;20025;-46
2021/12/15 04:12:48;;;;;;;4.30;3.20;;;23.10;38.70;;;;;;5018741;28;20100;-46
2021/12/15 04:15:28;;;;;;;4.35;3.55;;;23.00;38.60;;;;;;5004349;28;20026;-46
2021/12/15 04:18:01;;;;;;;3.90;2.85;;;23.10;38.70;;;;;;5004358;28;20061;-46
2021/12/15 04:20:31;;;;;;;4.20;3.20;;;23.00;38.60;;;;;;5005008;28;20075;-46
2021/12/15 04:22:58;;;;;;;4.10;3.05;;;23.00;38.60;;;;;;5014386;28;20033;-47
2021/12/15 04:25:28;;;;;;;4.22;3.17;;;23.00;38.70;;;;;;5023861;28;20505;-46
2021/12/15 04:27:59;;;;;;;4.25;3.10;;;23.00;38.70;;;;;;5023559;28;20058;-46
2021/12/15 04:30:27;;;;;;;4.25;3.20;;;23.00;38.60;;;;;;5024522;28;20506;-46
2021/12/15 04:32:55;;;;;;;3.72;2.90;;;23.00;38.60;;;;;;5023239;28;20371;-46
2021/12/15 04:35:21;;;;;;;4.30;3.10;;;23.00;38.60;;;;;;5024980;28;20086;-46
2021/12/15 04:37:48;;;;;;;3.90;3.10;;;23.00;38.70;;;;;;5024365;28;20053;-46
2021/12/15 04:40:16;;;;;;;4.53;3.30;;;23.00;38.60;;;;;;5022742;28;20198;-46
2021/12/15 04:42:43;;;;;;;3.80;2.83;;;23.00;38.60;;;;;;5024037;28;20899;-46
2021/12/15 04:45:12;;;;;;;3.50;2.50;;;22.90;38.70;;;;;;5023726;28;20033;-46
2021/12/15 04:47:38;;;;;;;3.83;2.75;;;22.90;38.70;;;;;;5022878;28;20021;-46
2021/12/15 04:50:05;;;;;;;3.85;2.88;;;22.90;38.70;;;;;;5030630;28;20032;-46
2021/12/15 04:52:32;;;;;;;3.75;2.80;;;22.90;38.70;;;;;;5036668;28;20548;-46
2021/12/15 04:54:59;;;;;;;4.38;2.90;;;22.90;38.70;;;;;;5024148;28;20660;-46
2021/12/15 04:57:26;;;;;;;3.80;2.63;;;22.90;38.70;;;;;;5023791;28;20084;-46
2021/12/15 04:59:54;;;;;;;4.10;2.67;;;22.90;38.70;;;;;;5023353;28;20045;-46
2021/12/15 05:02:21;;;;;;;3.85;2.70;;;22.90;38.70;;;;;;5019834;28;20037;-46
2021/12/15 05:04:48;;;;;;;4.13;2.67;;;22.90;38.70;;;;;;5023781;28;20080;-46
2021/12/15 05:07:15;;;;;;;4.20;2.80;;;22.90;38.70;;;;;;5023111;28;20036;-46
2021/12/15 05:09:41;;;;;;;3.72;2.63;;;22.90;38.70;;;;;;5022773;28;20433;-45
2021/12/15 05:12:07;;;;;;;3.20;2.30;;;22.90;38.70;;;;;;5022993;28;20029;-46
2021/12/15 05:14:34;;;;;;;4.00;2.67;;;22.90;38.80;;;;;;5022591;28;20146;-46
2021/12/15 05:17:00;;;;;;;3.35;2.20;;;22.90;38.90;;;;;;5022946;28;20497;-46
2021/12/15 05:19:27;;;;;;;3.33;2.20;;;22.80;38.70;;;;;;5022479;28;20108;-46
2021/12/15 05:21:56;;;;;;;3.15;2.08;;;22.80;38.70;;;;;;5023012;28;20550;-46
2021/12/15 05:24:31;;;;;;;3.22;1.98;;;22.80;38.70;;;;;;5022868;28;20432;-46
2021/12/15 05:27:11;;;;;;;3.60;2.03;;;22.90;38.90;;;;;;5022064;28;20017;-46
2021/12/15 05:29:39;;;;;;;3.53;2.30;;;22.80;39.30;;;;;;5026451;28;20067;-46
2021/12/15 05:32:06;;;;;;;4.00;2.45;;;22.90;39.80;;;;;;5024883;28;20147;-46
2021/12/15 05:34:32;;;;;;;4.13;2.70;;;22.90;39.90;;;;;;5026534;28;20565;-46
2021/12/15 05:36:58;;;;;;;4.90;2.60;;;22.90;40.10;;;;;;5025980;28;20025;-46
2021/12/15 05:39:24;;;;;;;3.95;2.35;;;22.90;40.40;;;;;;5019931;28;20057;-46
2021/12/15 05:41:50;;;;;;;4.07;2.38;;;22.90;40.70;;;;;;5020789;28;20069;-46
2021/12/15 05:44:17;;;;;;;5.20;2.30;;;23.00;40.80;;;;;;5024525;28;20025;-46
2021/12/15 05:46:43;;;;;;;4.20;2.20;;;23.00;40.60;;;;;;5022899;28;20029;-46
2021/12/15 05:49:09;;;;;;;4.60;2.13;;;23.00;40.60;;;;;;5026167;28;20386;-46
2021/12/15 05:51:37;;;;;;;5.50;2.30;;;23.10;40.50;;;;;;5045389;28;20456;-46
2021/12/15 05:54:08;;;;;;;3.97;2.08;;;23.10;40.40;;;;;;5009905;28;20088;-46
2021/12/15 05:56:34;;;;;;;3.80;1.88;;;23.10;40.20;;;;;;5024690;28;20071;-47
2021/12/15 05:59:00;;;;;;;2.78;1.58;;;23.20;40.20;;;;;;5026656;28;20137;-46
2021/12/15 06:01:27;;;;;;;3.83;1.73;;;23.20;40.20;;;;;;5027209;28;20040;-46
2021/12/15 06:03:53;;;;;;;4.10;2.08;;;23.30;40.40;;;;;;5026734;28;20045;-46
2021/12/15 06:06:18;;;;;;;3.75;2.00;;;23.30;40.30;;;;;;5026330;28;20529;-46
2021/12/15 06:08:44;;;;;;;3.35;2.03;;;23.40;40.20;;;;;;5025647;28;20150;-46
2021/12/15 06:11:10;;;;;;;4.00;2.15;;;23.50;40.30;;;;;;5024854;28;20017;-46
2021/12/15 06:13:35;;;;;;;4.30;1.90;;;23.50;40.20;;;;;;5024335;28;20492;-46
2021/12/15 06:16:02;;;;;;;3.63;1.73;;;23.60;40.00;;;;;;5025976;28;20041;-46
2021/12/15 06:18:28;;;;;;;3.15;1.67;;;23.70;40.10;;;;;;5026794;28;20021;-46
2021/12/15 06:20:55;;;;;;;5.70;2.05;;;23.80;39.80;;;;;;5026522;28;20797;-46
2021/12/15 06:23:22;;;;;;;4.93;2.00;;;23.90;39.80;;;;;;5024820;28;20059;-48
2021/12/15 06:25:55;;;;;;;3.17;1.73;;;24.00;39.90;;;;;;5024646;28;20026;-48
2021/12/15 06:28:23;;;;;;;2.90;1.50;;;24.00;39.70;;;;;;5026538;28;20025;-48
2021/12/15 06:30:49;;;;;;;3.22;1.50;;;24.10;39.70;;;;;;5026736;28;20021;-48
2021/12/15 06:33:15;;;;;;;2.55;1.42;;;24.20;39.60;;;;;;5026136;28;20122;-48
2021/12/15 06:35:52;;;;;;;4.20;1.40;;;24.30;39.60;;;;;;5026193;28;20034;-48
2021/12/15 06:38:23;;;;;;;3.40;1.40;;;24.30;39.60;;;;;;5023831;28;20036;-46
2021/12/15 06:40:49;;;;;;;2.60;1.25;;;24.40;39.90;;;;;;5007183;28;20156;-46
2021/12/15 06:43:15;;;;;;;8.25;1.95;;;24.40;39.90;;;;;;5024627;28;20076;-49
2021/12/15 06:45:56;;;;;;;4.45;1.60;;;24.50;39.90;;;;;;5026858;28;20033;-48
2021/12/15 06:59:20;;;;;;;5.53;1.48;;;24.80;39.30;;;;;;5026045;28;20095;-48
2021/12/15 07:01:48;;;;;;;3.40;1.50;;;24.80;39.30;;;;;;5025621;28;20681;-47
2021/12/15 07:04:14;;;;;;;4.95;1.45;;;24.80;39.30;;;;;;5025294;28;20030;-48
2021/12/15 07:06:39;;;;;;;2.58;1.33;;;24.90;39.50;;;;;;5026176;28;20032;-47
2021/12/15 07:09:06;;;;;;;3.33;1.63;;;24.90;39.50;;;;;;5023965;28;20056;-49
2021/12/15 07:11:31;;;;;;;2.97;0.90;;;25.00;39.30;;;;;;5025479;28;20037;-46
2021/12/15 07:13:57;;;;;;;3.40;1.45;;;25.00;39.20;;;;;;5023819;28;20021;-47
2021/12/15 07:16:24;;;;;;;3.10;1.40;;;25.00;39.00;;;;;;5025173;28;20095;-47
2021/12/15 07:19:05;;;;;;;1.98;1.00;;;25.00;39.10;;;;;;5025035;28;20030;-46
2021/12/15 07:21:35;;;;;;;3.38;1.42;;;25.00;38.90;;;;;;5024406;28;20100;-45
2021/12/15 07:24:01;;;;;;;3.15;1.13;;;25.10;38.70;;;;;;5023569;28;20026;-44
2021/12/15 07:26:26;;;;;;;3.60;1.40;;;25.10;38.60;;;;;;5005434;28;20020;-43
2021/12/15 07:28:53;;;;;;;4.57;1.42;;;25.10;38.50;;;;;;5023959;28;20030;-45
2021/12/15 07:31:19;;;;;;;4.82;1.75;;;25.20;38.50;;;;;;5025260;28;20018;-45
2021/12/15 07:33:45;;;;;;;5.10;1.80;;;25.20;38.60;;;;;;5024338;28;20624;-45
2021/12/15 07:36:11;;;;;;;5.35;1.85;;;25.20;38.50;;;;;;5024950;28;20034;-45
2021/12/15 07:38:41;;;;;;;5.18;2.08;;;25.30;38.40;;;;;;5023073;28;20044;-45
2021/12/15 07:41:17;;;;;;;5.82;2.10;;;25.30;38.50;;;;;;5024847;28;20079;-44
2021/12/15 07:43:43;;;;;;;4.78;1.92;;;25.30;38.50;;;;;;5023032;28;20645;-45
2021/12/15 07:46:09;;;;;;;5.80;1.75;;;25.30;38.40;;;;;;5025311;28;20037;-44
2021/12/15 07:48:35;;;;;;;3.92;1.90;;;25.30;38.40;;;;;;5025117;28;20025;-44
2021/12/15 07:51:04;;;;;;;6.20;2.17;;;25.30;38.40;;;;;;5038862;28;20028;-44
2021/12/15 07:53:29;;;;;;;6.78;2.45;;;25.40;38.40;;;;;;5032988;28;20037;-45
2021/12/15 07:55:56;;;;;;;6.82;2.15;;;25.40;38.40;;;;;;5024807;28;20736;-44
2021/12/15 07:58:23;;;;;;;7.55;2.50;;;25.40;38.40;;;;;;5025142;28;20033;-44
2021/12/15 08:00:51;;;;;;;6.13;2.30;;;25.40;38.40;;;;;;5024328;28;20041;-44
2021/12/15 08:03:17;;;;;;;7.60;2.58;;;25.40;38.40;;;;;;5017049;28;20017;-44
2021/12/15 08:05:46;;;;;;;5.90;2.58;;;25.40;38.30;;;;;;5004762;28;20025;-45
2021/12/15 08:08:11;;;;;;;7.72;3.05;;;25.40;38.40;;;;;;5015432;28;20038;-44
2021/12/15 08:10:37;;;;;;;8.52;2.80;;;25.40;39.20;;;;;;5044569;28;20028;-44
2021/12/15 08:13:04;;;;;;;8.80;2.92;;;25.50;38.50;;;;;;5044421;28;20083;-45
2021/12/15 08:15:30;;;;;;;13.38;3.90;;;25.40;38.50;;;;;;5045088;28;20033;-44
2021/12/15 08:17:55;;;;;;;8.55;3.05;;;25.50;38.70;;;;;;5044433;28;20640;-45
2021/12/15 08:20:25;;;;;;;9.18;3.63;;;25.40;38.40;;;;;;5044985;28;20590;-45
2021/12/15 08:22:51;;;;;;;8.27;3.13;;;25.50;38.50;;;;;;5037923;28;20083;-45
2021/12/15 08:25:18;;;;;;;8.90;3.08;;;25.50;38.60;;;;;;5024075;28;20056;-45
2021/12/15 08:27:45;;;;;;;10.18;3.47;;;25.40;38.50;;;;;;5022933;28;20048;-45
2021/12/15 08:30:20;;;;;;;9.30;3.10;;;25.40;38.50;;;;;;5022465;28;20618;-46
2021/12/15 08:32:51;;;;;;;10.10;3.50;;;25.50;38.50;;;;;;5005720;28;20053;-45
2021/12/15 08:35:19;;;;;;;8.27;3.72;;;25.40;38.40;;;;;;5023876;28;20029;-45
2021/12/15 08:37:45;;;;;;;10.15;3.28;;;25.40;38.30;;;;;;5024369;28;20083;-45
2021/12/15 08:40:12;;;;;;;8.68;3.55;;;25.40;38.40;;;;;;5023820;28;20524;-44
2021/12/15 08:42:37;;;;;;;7.65;3.40;;;25.40;38.60;;;;;;5023953;28;20043;-45
2021/12/15 08:45:05;;;;;;;9.23;3.63;;;25.30;38.70;;;;;;5016155;28;20101;-45
2021/12/15 08:47:31;;;;;;;8.45;3.22;;;25.40;38.70;;;;;;5020748;28;20056;-45
2021/12/15 08:49:56;;;;;;;7.75;3.63;;;25.30;38.60;;;;;;5026305;28;20169;-44
2021/12/15 08:52:22;;;;;;;8.10;3.30;;;25.30;38.70;;;;;;5024531;28;20578;-45
2021/12/15 08:54:48;;;;;;;8.23;3.40;;;25.30;38.80;;;;;;5024698;28;20029;-44
2021/12/15 08:57:14;;;;;;;9.05;3.33;;;25.30;39.00;;;;;;5024478;28;20528;-45
2021/12/15 08:59:40;;;;;;;11.25;3.70;;;25.30;39.00;;;;;;5024452;28;20105;-45
2021/12/15 09:02:06;;;;;;;10.57;3.67;;;25.30;38.90;;;;;;5023777;28;20121;-45
2021/12/15 09:04:32;;;;;;;10.38;3.67;;;25.20;38.80;;;;;;5023382;28;20092;-46
2021/12/15 09:06:57;;;;;;;7.45;3.40;;;25.20;38.90;;;;;;5024468;28;20021;-48
2021/12/15 09:09:25;;;;;;;5.40;2.63;;;25.20;38.80;;;;;;5024128;28;20021;-47
2021/12/15 09:11:53;;;;;;;8.43;3.25;;;25.20;38.80;;;;;;5023868;28;20112;-46
2021/12/15 09:14:19;;;;;;;9.70;3.05;;;25.20;38.80;;;;;;5023681;28;20093;-45
2021/12/15 09:16:48;;;;;;;8.90;3.05;;;25.20;38.80;;;;;;5023621;28;20112;-47
2021/12/15 09:19:15;;;;;;;10.13;4.60;;;25.20;38.90;;;;;;5022773;28;20023;-47
2021/12/15 09:21:42;;;;;;;8.10;2.90;;;25.10;38.80;;;;;;5022992;28;20033;-47
2021/12/15 09:24:09;;;;;;;8.98;3.65;;;25.10;38.70;;;;;;5022033;28;20108;-44
2021/12/15 09:26:37;;;;;;;8.63;3.28;;;25.10;38.90;;;;;;5022086;28;20029;-45
2021/12/15 09:29:04;;;;;;;9.68;3.55;;;25.10;39.00;;;;;;5023442;28;20394;-44
2021/12/15 09:31:31;;;;;;;9.15;3.35;;;25.10;39.10;;;;;;5022787;28;20040;-44
2021/12/15 09:33:58;;;;;;;8.05;3.53;;;25.10;39.20;;;;;;5023215;28;20041;-44
2021/12/15 09:36:25;;;;;;;8.32;3.67;;;25.10;39.20;;;;;;5023737;28;20512;-44
2021/12/15 09:38:56;;;;;;;8.85;3.60;;;25.10;39.10;;;;;;5018799;28;20030;-44
2021/12/15 09:41:23;;;;;;;7.57;3.50;;;25.10;39.30;;;;;;5003389;28;20030;-44
2021/12/15 09:43:53;;;;;;;7.53;3.58;;;25.00;39.30;;;;;;5020808;28;20029;-44
2021/12/15 09:46:51;;;;;;;7.07;3.50;;;25.00;39.40;;;;;;5020705;28;20124;-44
2021/12/15 10:01:56;;;;;;;10.40;3.60;;;25.00;39.50;;;;;;5022697;28;20036;-45
2021/12/15 10:03:43;;;;;;;9.35;3.63;;;25.00;39.50;;;;;;5021712;28;20503;-45
2021/12/15 10:19:46;;;;;;;7.18;2.97;;;25.10;39.60;;;;;;5025650;28;20053;-45
2021/12/15 10:22:37;;;;;;;8.13;3.05;;;25.10;39.60;;;;;;5026426;28;20041;-46
2021/12/15 10:25:26;;;;;;;8.02;3.25;;;25.10;39.80;;;;;;5025822;28;20030;-44
2021/12/15 10:28:00;;;;;;;8.82;3.75;;;25.10;39.90;;;;;;5025537;28;20104;-44
2021/12/15 10:30:33;;;;;;;5.03;2.50;;;25.10;40.00;;;;;;5026311;28;20175;-45
2021/12/15 10:33:10;;;;;;;8.65;3.35;;;25.10;40.00;;;;;;5025390;28;20486;-45
2021/12/15 10:35:44;;;;;;;5.50;3.10;;;25.10;40.20;;;;;;5029920;28;20091;-45
2021/12/15 10:38:44;;;;;;;6.57;3.20;;;25.20;40.00;;;;;;5023635;28;20037;-45
2021/12/15 10:41:32;;;;;;;7.30;2.75;;;25.20;40.00;;;;;;5013197;28;20034;-45
2021/12/15 10:44:10;;;;;;;6.80;2.97;;;25.20;39.90;;;;;;5019998;28;20104;-45
2021/12/15 10:46:37;;;;;;;6.63;2.58;;;25.20;39.90;;;;;;5025639;28;20022;-45
2021/12/15 10:49:11;;;;;;;8.80;3.30;;;25.20;40.00;;;;;;5024506;28;20034;-45
2021/12/15 10:51:47;;;;;;;5.65;3.05;;;25.10;40.00;;;;;;5026420;28;20037;-45
2021/12/15 10:54:20;;;;;;;9.20;3.40;;;25.10;40.10;;;;;;5025364;28;20025;-45
2021/12/15 10:56:54;;;;;;;7.15;2.88;;;25.10;40.10;;;;;;5023832;28;20095;-45
2021/12/15 10:59:21;;;;;;;5.80;2.50;;;25.10;40.00;;;;;;5025772;28;20524;-44
2021/12/15 11:01:49;;;;;;;9.07;3.00;;;25.10;40.00;;;;;;5024778;28;20144;-45
2021/12/15 11:04:39;;;;;;;6.15;2.60;;;25.10;40.20;;;;;;5023648;28;20100;-45
2021/12/15 11:07:13;;;;;;;7.78;2.65;;;25.10;40.20;;;;;;5005615;28;20041;-45
2021/12/15 11:10:34;;;;;;;8.15;3.00;;;25.10;40.20;;;;;;5019668;28;20104;-46
2021/12/15 11:12:59;;;;;;;6.47;2.90;;;25.10;40.30;;;;;;5019612;28;20045;-45
2021/12/15 11:15:37;;;;;;;5.88;2.63;;;25.00;40.50;;;;;;5022494;28;20040;-45
2021/12/15 11:18:25;;;;;;;8.45;3.33;;;25.10;40.50;;;;;;5015096;28;20657;-45
2021/12/15 11:20:58;;;;;;;8.25;3.13;;;25.00;40.60;;;;;;5016070;28;20401;-46
2021/12/15 11:23:26;;;;;;;7.15;2.92;;;25.00;40.80;;;;;;5025112;28;20029;-45
2021/12/15 11:25:57;;;;;;;5.47;2.88;;;25.00;40.80;;;;;;5025267;28;20030;-45
2021/12/15 11:28:29;;;;;;;5.68;2.80;;;25.00;40.90;;;;;;5025863;28;20524;-45
2021/12/15 11:30:58;;;;;;;9.82;2.90;;;25.00;40.90;;;;;;5025025;28;20029;-44
2021/12/15 11:33:37;;;;;;;7.18;2.95;;;25.00;41.00;;;;;;5025233;28;20053;-46
2021/12/15 11:36:12;;;;;;;5.82;2.53;;;25.00;41.10;;;;;;5025212;28;20033;-48
2021/12/15 11:38:44;;;;;;;48.10;13.75;;;25.00;42.80;;;;;;5024818;28;20040;-49
2021/12/15 11:41:23;;;;;;;18.52;7.07;;;25.00;54.80;;;;;;5024972;28;20022;-47
2021/12/15 11:43:55;;;;;;;14.05;5.40;;;24.90;49.10;;;;;;5025020;28;20125;-47
2021/12/15 11:46:35;;;;;;;12.25;5.43;;;24.80;45.70;;;;;;5024998;28;20028;-45
2021/12/15 11:49:09;;;;;;;10.18;5.32;;;24.80;44.30;;;;;;5024877;28;20673;-46
2021/12/15 11:51:45;;;;;;;11.63;4.35;;;24.80;44.10;;;;;;5011984;28;20509;-47
2021/12/15 11:54:31;;;;;;;7.82;4.05;;;24.80;44.50;;;;;;5005128;28;20030;-48
2021/12/15 11:57:19;;;;;;;6.65;3.38;;;24.80;43.50;;;;;;5005109;28;20141;-48
2021/12/15 11:59:49;;;;;;;9.68;3.97;;;24.80;43.10;;;;;;5005408;28;20112;-47
2021/12/15 12:02:22;;;;;;;12.60;4.82;;;24.80;43.10;;;;;;5004606;28;20106;-48
2021/12/15 12:04:54;;;;;;;24.40;6.88;;;24.90;43.00;;;;;;5023081;28;20037;-47
2021/12/15 12:07:26;;;;;;;21.00;5.60;;;24.90;42.50;;;;;;5003367;28;20033;-48
2021/12/15 12:10:20;;;;;;;18.65;6.20;;;24.90;43.30;;;;;;5019950;28;20025;-48
2021/12/15 12:12:53;;;;;;;18.38;5.43;;;24.90;43.00;;;;;;5025656;28;20506;-47
2021/12/15 12:15:25;;;;;;;12.57;5.38;;;24.90;42.50;;;;;;5024567;28;20029;-47
2021/12/15 12:17:55;;;;;;;12.32;4.57;;;25.00;43.50;;;;;;5023312;28;20022;-49
2021/12/15 12:20:34;;;;;;;15.25;5.05;;;24.90;45.90;;;;;;5024429;28;20037;-47
2021/12/15 12:23:03;;;;;;;11.32;4.07;;;25.00;46.60;;;;;;5022853;28;20035;-47
2021/12/15 12:25:36;;;;;;;8.50;3.58;;;25.00;46.80;;;;;;5021645;28;20022;-47
2021/12/15 12:28:06;;;;;;;10.30;4.05;;;25.00;46.60;;;;;;5022033;28;20052;-46
2021/12/15 12:30:39;;;;;;;11.27;3.78;;;25.00;46.50;;;;;;5023862;28;20097;-48
2021/12/15 12:33:09;;;;;;;7.88;3.40;;;25.00;46.00;;;;;;5023302;28;20104;-49
2021/12/15 12:35:40;;;;;;;8.77;3.65;;;25.00;45.90;;;;;;5022160;28;20070;-48
2021/12/15 12:38:29;;;;;;;9.20;4.10;;;25.00;45.70;;;;;;5022925;28;20040;-48
2021/12/15 12:41:15;;;;;;;10.45;3.63;;;25.00;45.50;;;;;;5022763;28;20053;-47
2021/12/15 12:43:45;;;;;;;9.98;4.35;;;25.00;45.10;;;;;;5021581;28;20025;-46
2021/12/15 13:00:51;;;;;;;14.27;11.70;;;24.90;43.80;;;;;;5032765;28;20096;-50
2021/12/15 13:03:36;;;;;;;75.30;68.07;;;24.90;43.60;;;;;;5021661;28;20041;-47
2021/12/15 13:06:04;;;;;;;210.57;191.55;;;24.80;43.30;;;;;;5021686;28;20112;-48
2021/12/15 13:08:29;;;;;;;286.35;260.13;;;24.80;43.80;;;;;;5021179;28;20029;-48
2021/12/15 13:10:55;;;;;;;545.67;492.58;;;24.80;43.80;;;;;;5022474;28;20056;-49
2021/12/15 13:13:27;;;;;;;543.03;490.00;;;24.80;44.90;;;;;;5022414;28;20048;-47
2021/12/15 13:16:07;;;;;;;411.37;369.03;;;24.80;44.40;;;;;;5021309;28;20038;-47
2021/12/15 13:18:49;;;;;;;383.10;343.08;;;24.80;43.50;;;;;;5022721;28;20029;-47
2021/12/15 13:21:19;;;;;;;370.08;331.52;;;24.80;43.10;;;;;;5022275;28;20037;-48
2021/12/15 13:23:58;;;;;;;362.98;325.13;;;24.70;42.90;;;;;;5020703;28;20335;-48
2021/12/15 13:29:50;;;;;;;385.17;343.90;;;24.70;42.90;;;;;;5020279;28;20052;-49
2021/12/15 13:32:16;;;;;;;361.92;322.40;;;24.70;43.30;;;;;;5021804;28;20025;-46
2021/12/15 13:34:49;;;;;;;349.58;311.58;;;24.70;43.40;;;;;;5021433;28;20029;-47
2021/12/15 13:37:59;;;;;;;321.52;286.42;;;24.70;43.30;;;;;;5021952;28;20040;-48
2021/12/15 13:41:06;;;;;;;263.27;232.32;;;24.60;42.90;;;;;;5019729;28;20030;-47
2021/12/15 13:43:40;;;;;;;230.57;200.85;;;24.60;42.50;;;;;;5022364;28;20486;-48
2021/12/15 13:46:22;;;;;;;227.05;202.00;;;24.60;42.20;;;;;;5023638;28;20608;-47
2021/12/15 13:49:14;;;;;;;230.53;200.33;;;24.60;42.00;;;;;;5024035;28;20026;-48
2021/12/15 13:51:55;;;;;;;211.93;184.85;;;24.60;42.20;;;;;;5010566;28;20036;-48
2021/12/15 13:54:44;;;;;;;192.05;162.98;;;24.50;42.20;;;;;;5026031;28;20306;-46
2021/12/15 13:57:13;;;;;;;188.85;158.25;;;24.50;42.10;;;;;;5027321;28;20040;-45
2021/12/15 13:59:40;;;;;;;178.85;152.73;;;24.60;41.90;;;;;;5027267;28;20524;-45
2021/12/15 14:02:19;;;;;;;167.18;141.38;;;24.60;41.80;;;;;;5027169;28;20037;-45
2021/12/15 14:04:51;;;;;;;155.38;131.13;;;24.50;41.70;;;;;;5027658;28;20026;-46
2021/12/15 14:07:44;;;;;;;138.07;116.22;;;24.60;41.60;;;;;;5027168;28;20037;-45
2021/12/15 14:10:10;;;;;;;;;;;24.50;41.60;;;;;;5007848;28;20674;-45
2021/12/15 14:12:45;;;;;;;118.55;99.15;;;24.50;41.70;;;;;;5025529;28;19905;-46
2021/12/15 14:15:34;;;;;;;122.53;101.60;;;24.50;42.00;;;;;;5026285;28;20026;-45
2021/12/15 14:18:03;;;;;;;122.32;104.50;;;24.50;42.10;;;;;;5024357;28;20033;-45
2021/12/15 14:20:31;;;;;;;118.57;100.43;;;24.60;42.40;;;;;;5026449;28;20103;-45
2021/12/15 14:22:59;;;;;;;112.78;93.75;;;24.50;42.70;;;;;;5026310;28;20030;-45
2021/12/15 14:25:26;;;;;;;105.35;89.75;;;24.60;42.80;;;;;;5027480;28;20025;-45
2021/12/15 14:27:52;;;;;;;103.65;87.57;;;24.60;42.70;;;;;;5025835;28;20032;-45
2021/12/15 14:30:17;;;;;;;101.53;84.30;;;24.60;43.40;;;;;;5026545;28;20616;-45
2021/12/15 14:32:44;;;;;;;97.53;82.47;;;24.60;43.50;;;;;;5026374;28;20029;-45